createdAt,value
2023-10-10T00:01:57.117Z,15.38
2023-10-10T00:04:23.530Z,15.41
2023-10-10T00:06:49.963Z,15.33
2023-10-10T00:09:17.760Z,15.36
2023-10-10T00:11:46.040Z,15.17
2023-10-10T00:14:15.683Z,15.26
2023-10-10T00:16:42.210Z,15.26
2023-10-10T00:19:13.059Z,15.31
2023-10-10T00:21:43.455Z,15.20
2023-10-10T00:24:09.911Z,15.20
2023-10-10T00:26:36.405Z,15.16
2023-10-10T00:29:03.010Z,15.15
2023-10-10T00:31:29.789Z,15.14
2023-10-10T00:33:56.501Z,15.10
2023-10-10T00:36:23.917Z,15.04
2023-10-10T00:38:51.691Z,14.96
2023-10-10T00:41:19.799Z,14.94
2023-10-10T00:43:52.725Z,14.90
2023-10-10T00:46:21.973Z,14.82
2023-10-10T00:48:51.402Z,14.81
2023-10-10T00:51:21.862Z,14.68
2023-10-10T00:53:53.747Z,14.54
2023-10-10T00:56:23.117Z,14.58
2023-10-10T00:58:52.682Z,14.64
2023-10-10T01:01:24.705Z,14.66
2023-10-10T01:03:51.193Z,14.71
2023-10-10T01:06:20.790Z,14.70
2023-10-10T01:08:55.428Z,14.50
2023-10-10T01:11:23.702Z,14.70
2023-10-10T01:13:59.528Z,14.44
2023-10-10T01:16:26.082Z,14.53
2023-10-10T01:18:59.367Z,14.63
2023-10-10T01:21:26.944Z,14.66
2023-10-10T01:23:53.485Z,14.62
2023-10-10T01:26:25.137Z,14.63
2023-10-10T01:28:54.687Z,14.80
2023-10-10T01:31:27.329Z,14.82
2023-10-10T01:33:53.827Z,14.80
2023-10-10T01:36:21.064Z,14.75
2023-10-10T01:38:58.231Z,14.73
2023-10-10T01:41:27.441Z,14.72
2023-10-10T01:43:56.303Z,14.81
2023-10-10T01:46:25.189Z,14.83
2023-10-10T01:48:51.574Z,14.77
2023-10-10T01:51:18.101Z,14.73
2023-10-10T01:53:44.691Z,14.78
2023-10-10T01:56:11.493Z,14.75
2023-10-10T01:58:38.122Z,14.91
2023-10-10T02:01:16.921Z,14.88
2023-10-10T02:03:46.926Z,14.81
2023-10-10T02:06:16.627Z,14.80
2023-10-10T02:08:50.644Z,14.71
2023-10-10T02:11:17.177Z,14.80
2023-10-10T02:13:43.699Z,14.79
2023-10-10T02:16:10.157Z,14.66
2023-10-10T02:18:36.777Z,14.72
2023-10-10T02:21:06.325Z,14.81
2023-10-10T02:23:33.359Z,14.93
2023-10-10T02:26:01.039Z,14.86
2023-10-10T02:28:27.567Z,14.76
2023-10-10T02:30:54.461Z,14.77
2023-10-10T02:36:01.469Z,14.69
2023-10-10T02:38:33.086Z,14.95
2023-10-10T02:41:08.306Z,14.95
2023-10-10T02:43:37.630Z,15.01
2023-10-10T02:46:04.326Z,14.92
2023-10-10T02:48:31.000Z,14.81
2023-10-10T02:50:59.688Z,14.88
2023-10-10T02:53:29.677Z,14.73
2023-10-10T02:55:56.352Z,14.88
2023-10-10T02:58:22.928Z,14.88
2023-10-10T03:00:53.800Z,14.98
2023-10-10T03:03:26.342Z,14.92
2023-10-10T03:05:54.025Z,14.90
2023-10-10T03:08:24.471Z,14.97
2023-10-10T03:10:54.058Z,14.94
2023-10-10T03:13:24.648Z,14.94
2023-10-10T03:15:57.177Z,14.94
2023-10-10T03:18:34.323Z,14.90
2023-10-10T03:21:00.926Z,14.73
2023-10-10T03:23:27.670Z,14.88
2023-10-10T03:25:55.584Z,14.80
2023-10-10T03:28:23.115Z,14.87
2023-10-10T03:31:07.989Z,14.92
2023-10-10T03:33:34.829Z,14.94
2023-10-10T03:36:01.522Z,14.97
2023-10-10T03:38:28.225Z,14.90
2023-10-10T03:40:54.852Z,14.89
2023-10-10T03:43:25.457Z,14.75
2023-10-10T03:45:59.465Z,14.90
2023-10-10T03:48:26.100Z,14.71
2023-10-10T03:50:52.524Z,14.59
2023-10-10T03:53:24.571Z,14.65
2023-10-10T03:55:55.142Z,14.71
2023-10-10T03:58:24.036Z,14.61
2023-10-10T04:00:55.008Z,14.52
2023-10-10T04:03:25.353Z,14.52
2023-10-10T04:05:54.874Z,14.51
2023-10-10T04:08:25.390Z,14.44
2023-10-10T04:10:56.338Z,14.39
2023-10-10T04:13:22.997Z,14.26
2023-10-10T04:15:51.822Z,14.16
2023-10-10T04:18:18.964Z,14.21
2023-10-10T04:20:45.582Z,14.13
2023-10-10T04:23:14.366Z,13.99
2023-10-10T04:25:41.039Z,14.07
2023-10-10T04:28:08.659Z,14.01
2023-10-10T04:30:35.372Z,13.82
2023-10-10T04:33:02.007Z,13.87
2023-10-10T04:35:30.064Z,13.88
2023-10-10T04:38:05.478Z,13.85
2023-10-10T04:40:33.406Z,13.61
2023-10-10T04:43:06.720Z,13.68
2023-10-10T04:45:34.050Z,13.73
2023-10-10T04:48:06.657Z,13.76
2023-10-10T04:50:33.402Z,13.62
2023-10-10T04:53:04.285Z,13.56
2023-10-10T04:55:32.426Z,13.46
2023-10-10T04:58:01.545Z,13.48
2023-10-10T05:00:28.123Z,13.37
2023-10-10T05:02:54.830Z,13.31
2023-10-10T05:05:23.728Z,13.36
2023-10-10T05:07:54.631Z,13.37
2023-10-10T05:10:23.261Z,13.26
2023-10-10T05:12:49.901Z,13.21
2023-10-10T05:15:16.444Z,13.22
2023-10-10T05:17:43.327Z,13.24
2023-10-10T05:20:13.550Z,13.20
2023-10-10T05:22:40.085Z,13.26
2023-10-10T05:25:07.483Z,13.17
2023-10-10T05:27:57.299Z,13.27
2023-10-10T05:30:25.183Z,13.21
2023-10-10T05:33:04.144Z,13.49
2023-10-10T05:35:38.412Z,13.48
2023-10-10T05:38:11.024Z,13.55
2023-10-10T05:40:38.402Z,13.50
2023-10-10T05:43:05.968Z,13.54
2023-10-10T05:45:32.453Z,13.51
2023-10-10T05:47:59.182Z,13.55
2023-10-10T05:50:25.932Z,13.53
2023-10-10T05:52:55.608Z,13.55
2023-10-10T05:55:24.934Z,13.55
2023-10-10T05:57:55.933Z,13.58
2023-10-10T06:00:27.610Z,13.55
2023-10-10T06:02:54.110Z,13.63
2023-10-10T06:05:22.860Z,13.54
2023-10-10T06:07:49.332Z,13.65
2023-10-10T06:10:24.823Z,13.62
2023-10-10T06:12:55.414Z,13.66
2023-10-10T06:15:24.818Z,13.79
2023-10-10T06:17:54.451Z,13.87
2023-10-10T06:20:28.507Z,13.82
2023-10-10T06:22:55.185Z,13.80
2023-10-10T06:25:23.447Z,13.92
2023-10-10T06:27:55.430Z,13.92
2023-10-10T06:30:27.903Z,14.08
2023-10-10T06:32:54.586Z,14.09
2023-10-10T06:35:23.449Z,14.01
2023-10-10T06:38:03.884Z,14.18
2023-10-10T06:40:39.524Z,14.21
2023-10-10T06:43:06.059Z,14.20
2023-10-10T06:45:36.825Z,14.37
2023-10-10T06:48:03.552Z,14.37
2023-10-10T06:50:30.267Z,14.40
2023-10-10T06:52:59.942Z,14.42
2023-10-10T06:55:26.459Z,14.29
2023-10-10T06:57:57.073Z,14.39
2023-10-10T07:00:27.824Z,14.35
2023-10-10T07:02:54.974Z,14.48
2023-10-10T07:05:25.258Z,14.55
2023-10-10T07:07:55.595Z,14.49
2023-10-10T07:10:25.232Z,14.72
2023-10-10T07:12:54.614Z,14.75
2023-10-10T07:15:25.188Z,14.73
2023-10-10T07:17:58.496Z,15.01
2023-10-10T07:20:25.125Z,15.18
2023-10-10T07:22:55.909Z,15.31
2023-10-10T07:25:25.285Z,15.33
2023-10-10T07:27:54.750Z,15.34
2023-10-10T07:33:01.709Z,15.47
2023-10-10T07:35:28.233Z,15.44
2023-10-10T07:38:04.591Z,15.49
2023-10-10T07:40:31.243Z,15.71
2023-10-10T07:43:04.558Z,15.75
2023-10-10T07:45:31.952Z,15.62
2023-10-10T07:48:02.048Z,15.77
2023-10-10T07:50:33.542Z,15.81
2023-10-10T07:53:00.007Z,15.85
2023-10-10T07:55:36.703Z,15.91
2023-10-10T07:58:03.256Z,15.86
2023-10-10T08:00:30.960Z,15.98
2023-10-10T08:02:58.849Z,16.00
2023-10-10T08:05:25.536Z,16.15
2023-10-10T08:07:55.981Z,16.14
2023-10-10T08:10:25.199Z,16.22
2023-10-10T08:12:54.534Z,16.37
2023-10-10T08:15:24.747Z,16.43
2023-10-10T08:17:53.821Z,16.64
2023-10-10T08:20:25.688Z,16.40
2023-10-10T08:23:04.052Z,16.59
2023-10-10T08:25:30.708Z,16.69
2023-10-10T08:27:57.759Z,16.73
2023-10-10T08:30:24.440Z,16.96
2023-10-10T08:32:53.584Z,17.33
2023-10-10T08:35:23.944Z,17.68
2023-10-10T08:37:53.191Z,17.93
2023-10-10T08:40:20.456Z,17.99
2023-10-10T08:42:53.152Z,17.97
2023-10-10T08:45:22.443Z,18.31
2023-10-10T08:48:17.078Z,18.06
2023-10-10T08:50:45.393Z,18.24
2023-10-10T08:53:19.083Z,18.21
2023-10-10T08:55:45.812Z,18.37
2023-10-10T08:58:14.216Z,18.53
2023-10-10T09:00:40.784Z,18.63
2023-10-10T09:03:07.623Z,18.97
2023-10-10T09:05:34.297Z,19.36
2023-10-10T09:08:00.977Z,19.39
2023-10-10T09:10:31.030Z,19.63
2023-10-10T09:12:57.599Z,20.15
2023-10-10T09:15:25.172Z,20.12
2023-10-10T09:18:19.976Z,20.02
2023-10-10T09:20:46.557Z,20.51
2023-10-10T09:23:31.678Z,20.52
2023-10-10T09:26:14.100Z,19.87
2023-10-10T09:28:52.406Z,19.94
2023-10-10T09:31:20.279Z,19.47
2023-10-10T09:33:53.626Z,19.21
2023-10-10T09:36:23.593Z,19.48
2023-10-10T09:38:56.473Z,19.71
2023-10-10T09:41:29.749Z,19.74
2023-10-10T09:44:22.179Z,19.90
2023-10-10T09:47:09.994Z,20.45
2023-10-10T09:49:40.986Z,21.25
2023-10-10T09:52:33.962Z,22.22
2023-10-10T09:55:08.922Z,22.76
2023-10-10T09:57:48.658Z,23.35
2023-10-10T10:00:30.052Z,24.16
2023-10-10T10:02:58.190Z,24.71
2023-10-10T10:05:29.562Z,24.62
2023-10-10T10:08:24.083Z,24.89
2023-10-10T10:11:07.477Z,25.34
2023-10-10T10:14:14.792Z,25.47
2023-10-10T10:16:54.048Z,26.58
2023-10-10T10:19:26.475Z,26.94
2023-10-10T10:22:00.396Z,26.17
2023-10-10T10:24:34.309Z,24.95
2023-10-10T10:27:23.851Z,23.97
2023-10-10T10:30:07.381Z,23.00
2023-10-10T10:32:36.109Z,23.49
2023-10-10T10:35:03.617Z,23.55
2023-10-10T10:37:30.047Z,24.33
2023-10-10T10:40:04.804Z,24.67
2023-10-10T10:42:40.728Z,25.55
2023-10-10T10:45:28.124Z,25.73
2023-10-10T10:47:59.210Z,24.93
2023-10-10T10:50:30.232Z,25.59
2023-10-10T10:53:19.904Z,26.10
2023-10-10T10:55:47.846Z,26.81
2023-10-10T10:58:15.629Z,26.82
2023-10-10T11:00:44.305Z,27.43
2023-10-10T11:03:10.977Z,28.74
2023-10-10T11:05:39.396Z,28.18
2023-10-10T11:08:09.028Z,27.94
2023-10-10T11:10:37.413Z,28.82
2023-10-10T11:13:15.586Z,29.74
2023-10-10T11:15:49.274Z,29.69
2023-10-10T11:18:27.436Z,28.08
2023-10-10T11:21:03.177Z,27.93
2023-10-10T11:23:29.896Z,28.25
2023-10-10T11:25:56.561Z,28.84
2023-10-10T11:28:32.059Z,29.83
2023-10-10T11:31:28.280Z,30.58
2023-10-10T11:33:55.975Z,30.46
2023-10-10T11:36:32.393Z,30.23
2023-10-10T11:38:59.138Z,30.24
2023-10-10T11:41:28.609Z,30.72
2023-10-10T11:44:04.697Z,30.87
2023-10-10T11:46:34.520Z,30.90
2023-10-10T11:49:03.466Z,30.06
2023-10-10T11:51:42.572Z,29.37
2023-10-10T11:54:09.553Z,30.22
2023-10-10T11:56:37.668Z,31.59
2023-10-10T11:59:12.569Z,31.02
2023-10-10T12:01:43.319Z,29.46
2023-10-10T12:04:09.895Z,30.65
2023-10-10T12:06:37.637Z,31.45
2023-10-10T12:09:06.723Z,30.49
2023-10-10T12:11:33.245Z,31.72
2023-10-10T12:14:02.832Z,31.95
2023-10-10T12:16:31.650Z,32.08
2023-10-10T12:19:01.012Z,32.42
2023-10-10T12:21:27.674Z,32.88
2023-10-10T12:24:02.553Z,31.21
2023-10-10T12:26:29.800Z,29.30
2023-10-10T12:28:56.230Z,29.37
2023-10-10T12:31:23.792Z,29.94
2023-10-10T12:33:50.728Z,29.90
2023-10-10T12:36:17.924Z,28.57
2023-10-10T12:38:45.173Z,29.18
2023-10-10T12:41:11.986Z,28.23
2023-10-10T12:43:38.870Z,27.79
2023-10-10T12:46:06.018Z,27.47
2023-10-10T12:48:32.621Z,27.94
2023-10-10T12:50:59.199Z,29.24
2023-10-10T12:53:31.054Z,28.20
2023-10-10T12:55:57.623Z,28.97
2023-10-10T12:58:26.905Z,28.66
2023-10-10T13:01:11.918Z,28.71
2023-10-10T13:03:38.583Z,28.20
2023-10-10T13:06:07.867Z,27.59
2023-10-10T13:08:37.743Z,26.39
2023-10-10T13:11:04.602Z,26.41
2023-10-10T13:13:31.033Z,26.12
2023-10-10T13:16:00.135Z,25.47
2023-10-10T13:18:26.999Z,25.14
2023-10-10T13:20:56.112Z,24.86
2023-10-10T13:23:32.818Z,24.62
2023-10-10T13:26:02.502Z,24.73
2023-10-10T13:28:31.324Z,24.29
2023-10-10T13:31:00.960Z,23.84
2023-10-10T13:33:27.572Z,24.23
2023-10-10T13:35:57.123Z,24.22
2023-10-10T13:38:28.898Z,24.32
2023-10-10T13:40:55.492Z,24.47
2023-10-10T13:43:29.001Z,24.49
2023-10-10T13:45:58.174Z,24.48
2023-10-10T13:48:25.735Z,24.53
2023-10-10T13:50:52.591Z,24.57
2023-10-10T13:53:19.455Z,24.30
2023-10-10T13:55:51.617Z,24.72
2023-10-10T13:58:18.235Z,24.85
2023-10-10T14:00:51.254Z,24.72
2023-10-10T14:03:18.027Z,24.44
2023-10-10T14:05:44.493Z,24.44
2023-10-10T14:08:13.964Z,24.17
2023-10-10T14:10:41.490Z,23.80
2023-10-10T14:13:20.183Z,23.56
2023-10-10T14:15:52.073Z,23.32
2023-10-10T14:18:20.519Z,23.05
2023-10-10T14:20:47.391Z,22.91
2023-10-10T14:23:14.597Z,22.96
2023-10-10T14:25:40.978Z,23.02
2023-10-10T14:28:07.661Z,23.29
2023-10-10T14:30:41.110Z,23.44
2023-10-10T14:33:07.749Z,23.26
2023-10-10T14:35:36.845Z,22.77
2023-10-10T14:38:04.565Z,22.53
2023-10-10T14:40:31.057Z,22.52
2023-10-10T14:42:57.561Z,22.42
2023-10-10T14:45:32.855Z,22.29
2023-10-10T14:48:19.566Z,22.12
2023-10-10T14:50:50.084Z,21.96
2023-10-10T14:53:16.696Z,21.76
2023-10-10T14:55:43.234Z,21.61
2023-10-10T14:58:09.729Z,21.56
2023-10-10T15:00:36.905Z,21.50
2023-10-10T15:03:03.688Z,21.69
2023-10-10T15:05:30.405Z,21.55
2023-10-10T15:07:56.979Z,21.53
2023-10-10T15:10:26.002Z,21.36
2023-10-10T15:13:01.647Z,21.08
2023-10-10T15:15:46.528Z,21.11
2023-10-10T15:18:20.069Z,21.34
2023-10-10T15:20:48.680Z,21.30
2023-10-10T15:23:21.166Z,21.20
2023-10-10T15:25:57.322Z,21.16
2023-10-10T15:28:28.287Z,21.07
2023-10-10T15:30:57.417Z,21.07
2023-10-10T15:33:31.282Z,21.07
2023-10-10T15:36:08.009Z,21.17
2023-10-10T15:38:40.698Z,21.03
2023-10-10T15:41:31.607Z,20.82
2023-10-10T15:43:59.282Z,20.83
2023-10-10T15:46:32.646Z,20.85
2023-10-10T15:49:00.188Z,20.77
2023-10-10T15:51:27.226Z,20.78
2023-10-10T15:54:01.476Z,20.78
2023-10-10T15:56:27.915Z,20.58
2023-10-10T15:59:00.206Z,20.51
2023-10-10T16:01:29.128Z,20.38
2023-10-10T16:04:05.479Z,20.29
2023-10-10T16:06:36.682Z,20.36
2023-10-10T16:09:05.231Z,20.05
2023-10-10T16:11:57.581Z,20.21
2023-10-10T16:14:22.972Z,20.12
2023-10-10T16:16:52.824Z,19.88
2023-10-10T16:19:23.731Z,19.89
2023-10-10T16:21:51.343Z,19.96
2023-10-10T16:24:18.192Z,19.96
2023-10-10T16:26:45.800Z,19.80
2023-10-10T16:29:12.945Z,19.66
2023-10-10T16:31:46.965Z,19.53
2023-10-10T16:34:14.237Z,19.38
2023-10-10T16:36:44.922Z,19.39
2023-10-10T16:39:13.995Z,19.42
2023-10-10T16:41:41.339Z,19.32
2023-10-10T16:44:07.911Z,19.21
2023-10-10T16:46:38.437Z,19.19
2023-10-10T16:49:07.412Z,19.11
2023-10-10T16:51:34.192Z,19.06
2023-10-10T16:54:02.094Z,19.00
2023-10-10T16:56:28.742Z,18.69
2023-10-10T16:59:04.402Z,18.82
2023-10-10T17:01:32.215Z,18.64
2023-10-10T17:03:59.044Z,18.63
2023-10-10T17:06:28.939Z,18.43
2023-10-10T17:08:58.716Z,18.39
2023-10-10T17:11:29.321Z,18.48
2023-10-10T17:13:59.039Z,18.20
2023-10-10T17:16:34.614Z,18.23
2023-10-10T17:21:32.000Z,18.32
2023-10-10T17:24:02.144Z,17.94
2023-10-10T17:26:28.762Z,18.06
2023-10-10T17:28:59.066Z,17.95
2023-10-10T17:31:28.675Z,17.92
2023-10-10T17:34:04.244Z,17.76
2023-10-10T17:36:30.721Z,17.75
2023-10-10T17:38:57.323Z,17.67
2023-10-10T17:41:53.725Z,17.60
2023-10-10T17:44:20.478Z,17.42
2023-10-10T17:46:47.381Z,17.42
2023-10-10T17:49:13.897Z,17.48
2023-10-10T17:51:42.744Z,17.48
2023-10-10T17:54:14.493Z,17.35
2023-10-10T17:56:41.232Z,17.38
2023-10-10T17:59:07.708Z,17.61
2023-10-10T18:01:35.392Z,17.54
2023-10-10T18:04:05.188Z,17.42
2023-10-10T18:06:40.247Z,17.62
2023-10-10T18:09:06.802Z,17.45
2023-10-10T18:11:33.574Z,17.61
2023-10-10T18:14:02.747Z,17.59
2023-10-10T18:16:34.601Z,17.51
2023-10-10T18:19:01.754Z,17.48
2023-10-10T18:21:28.329Z,17.56
2023-10-10T18:24:00.176Z,17.50
2023-10-10T18:26:32.053Z,17.46
2023-10-10T18:28:58.600Z,17.47
2023-10-10T18:31:27.663Z,17.50
2023-10-10T18:34:00.923Z,17.50
2023-10-10T18:36:30.629Z,17.26
2023-10-10T18:38:59.836Z,17.36
2023-10-10T18:41:30.251Z,17.37
2023-10-10T18:43:59.821Z,17.23
2023-10-10T18:46:31.822Z,17.43
2023-10-10T18:48:59.238Z,17.43
2023-10-10T18:51:33.258Z,17.37
2023-10-10T18:54:05.908Z,17.37
2023-10-10T18:56:35.497Z,17.47
2023-10-10T18:59:04.829Z,17.39
2023-10-10T19:01:31.351Z,17.35
2023-10-10T19:03:57.786Z,17.34
2023-10-10T19:06:29.947Z,17.40
2023-10-10T19:09:03.399Z,17.59
2023-10-10T19:11:29.912Z,17.71
2023-10-10T19:13:59.250Z,17.47
2023-10-10T19:16:27.853Z,17.48
2023-10-10T19:19:00.401Z,17.51
2023-10-10T19:21:33.132Z,17.25
2023-10-10T19:23:59.654Z,17.29
2023-10-10T19:26:28.409Z,17.39
2023-10-10T19:28:54.977Z,17.17
2023-10-10T19:31:23.025Z,17.44
2023-10-10T19:33:49.773Z,17.35
2023-10-10T19:36:16.559Z,17.24
2023-10-10T19:38:47.999Z,17.19
2023-10-10T19:41:15.763Z,17.15
2023-10-10T19:43:42.415Z,17.03
2023-10-10T19:46:09.019Z,17.00
2023-10-10T19:48:35.533Z,17.05
2023-10-10T19:51:04.911Z,17.21
2023-10-10T19:53:31.397Z,17.20
2023-10-10T19:56:00.927Z,17.14
2023-10-10T19:58:36.004Z,17.19
2023-10-10T20:01:06.294Z,17.24
2023-10-10T20:03:32.886Z,17.13
2023-10-10T20:05:59.464Z,17.10
2023-10-10T20:08:30.643Z,17.18
2023-10-10T20:11:02.438Z,17.22
2023-10-10T20:13:28.959Z,17.16
2023-10-10T20:15:55.398Z,16.98
2023-10-10T20:18:21.933Z,17.10
2023-10-10T20:20:48.511Z,17.39
2023-10-10T20:23:15.334Z,17.28
2023-10-10T20:25:42.454Z,17.56
2023-10-10T20:28:10.568Z,17.53
2023-10-10T20:30:42.498Z,17.69
2023-10-10T20:33:08.949Z,17.66
2023-10-10T20:35:35.574Z,17.62
2023-10-10T20:38:07.353Z,17.46
2023-10-10T20:40:37.844Z,17.53
2023-10-10T20:43:06.618Z,17.64
2023-10-10T20:45:35.962Z,17.63
2023-10-10T20:48:07.810Z,17.74
2023-10-10T20:50:36.610Z,17.63
2023-10-10T20:53:03.094Z,17.71
2023-10-10T20:55:30.260Z,17.51
2023-10-10T20:58:00.284Z,17.46
2023-10-10T21:00:29.933Z,17.58
2023-10-10T21:03:03.438Z,17.50
2023-10-10T21:05:30.049Z,17.30
2023-10-10T21:10:45.759Z,17.29
2023-10-10T21:13:24.844Z,17.37
2023-10-10T21:15:51.631Z,17.36
2023-10-10T21:18:18.284Z,17.15
2023-10-10T21:21:02.849Z,17.33
2023-10-10T21:23:34.763Z,17.24
2023-10-10T21:26:03.953Z,17.36
2023-10-10T21:28:30.535Z,17.34
2023-10-10T21:30:59.775Z,17.30
2023-10-10T21:33:28.892Z,17.35
2023-10-10T21:35:55.623Z,17.26
2023-10-10T21:38:22.114Z,17.26
2023-10-10T21:40:50.800Z,17.20
2023-10-10T21:43:20.007Z,17.14
2023-10-10T21:45:49.633Z,17.11
2023-10-10T21:48:16.199Z,17.11
2023-10-10T21:50:51.697Z,17.07
2023-10-10T21:53:18.171Z,16.97
2023-10-10T21:55:50.259Z,16.98
2023-10-10T21:58:19.053Z,17.04
2023-10-10T22:00:45.553Z,16.89
2023-10-10T22:03:16.502Z,16.85
2023-10-10T22:05:47.054Z,16.79
2023-10-10T22:08:25.620Z,16.81
2023-10-10T22:10:52.605Z,16.67
2023-10-10T22:13:21.707Z,16.64
2023-10-10T22:15:48.216Z,16.72
2023-10-10T22:18:17.830Z,16.54
2023-10-10T22:20:44.396Z,16.67
2023-10-10T22:23:10.873Z,16.61
2023-10-10T22:25:37.304Z,16.64
2023-10-10T22:28:07.085Z,16.60
2023-10-10T22:30:36.378Z,16.63
2023-10-10T22:33:06.991Z,16.68
2023-10-10T22:35:36.911Z,16.66
2023-10-10T22:38:10.822Z,16.52
2023-10-10T22:40:54.339Z,16.63
2023-10-10T22:43:24.781Z,16.41
2023-10-10T22:45:51.367Z,16.38
2023-10-10T22:48:18.032Z,16.45
2023-10-10T22:50:44.543Z,16.46
2023-10-10T22:53:11.048Z,16.38
2023-10-10T22:55:41.498Z,16.54
2023-10-10T22:58:10.594Z,16.37
2023-10-10T23:00:37.811Z,16.35
2023-10-10T23:03:15.245Z,16.27
2023-10-10T23:05:44.812Z,16.37
2023-10-10T23:08:14.975Z,16.41
2023-10-10T23:10:42.857Z,16.30
2023-10-10T23:13:09.452Z,16.28
2023-10-10T23:15:44.269Z,16.24
2023-10-10T23:18:11.103Z,16.16
2023-10-10T23:20:38.482Z,16.12
2023-10-10T23:23:07.345Z,16.18
2023-10-10T23:25:34.051Z,16.11
2023-10-10T23:28:00.741Z,16.17
2023-10-10T23:30:32.799Z,16.21
2023-10-10T23:32:59.985Z,15.98
2023-10-10T23:35:29.700Z,16.10
2023-10-10T23:37:59.111Z,16.04
2023-10-10T23:40:25.713Z,16.01
2023-10-10T23:42:53.728Z,15.99
2023-10-10T23:45:22.333Z,16.04
2023-10-10T23:47:53.026Z,15.96
2023-10-10T23:50:20.076Z,15.99
2023-10-10T23:52:46.450Z,15.78
2023-10-10T23:55:15.545Z,15.90
2023-10-10T23:57:42.008Z,15.85
